Terminal Aerodrome Forecast
Issued by NWS

Home | Current Version | Previous Version | Text Only | Print | Product List | Glossary On
Versions: 1 2 3 4 5 6 7 8 9 10 11 12 13 14 15 16 17 18 19 20 21 22 23
000
FTUS45 KREV 031724
TAFRNO
TAF
KRNO 031724Z 0318/0418 25012G22KT P6SM FEW070 SCT150
     FM032300 29015G25KT P6SM SCT120 SCT200
     FM040600 VRB03KT P6SM FEW100 SCT200
     FM041700 21008G18KT P6SM SCT200=

USA.gov is the U.S. government's official web portal to all federal, state and local government web resources and services.